Time;durP1;ratioP1;P1;durP2;ratioP2;P2;SDS_P1;SDS_P2;PMS_P1;PMS_P2;Temp;Humidity;BMP_temperature;BMP_pressure;BME280_temperature;BME280_humidity;BME280_pressure;Samples;Min_cycle;Max_cycle;Signal;HPM_P1;HPM_P2
2022/08/11 03:41:43;;;;;;;1.85;1.62;;;;;;;18.73;57.16;100849.31;6027603;26;13603441;-86
2022/08/11 03:45:16;;;;;;;1.58;1.48;;;;;;;18.67;57.46;100854.78;6607788;27;34365;-86
2022/08/11 03:48:21;;;;;;;2.05;1.85;;;;;;;18.64;57.89;100855.22;6607768;27;35031;-85
2022/08/11 03:51:34;;;;;;;1.98;1.83;;;;;;;18.63;58.13;100859.81;6607315;27;34330;-86
2022/08/11 03:55:13;;;;;;;4.80;1.93;;;;;;;18.65;58.34;100856.88;6607797;27;34411;-85
2022/08/11 03:58:45;;;;;;;1.80;1.70;;;;;;;18.68;58.42;100849.09;6608128;27;33942;-86
2022/08/11 04:02:26;;;;;;;1.90;1.73;;;;;;;18.75;58.04;100854.56;6574308;27;34338;-86
2022/08/11 04:05:48;;;;;;;1.92;1.65;;;;;;;18.82;58.08;100859.97;6607129;27;33730;-86
2022/08/11 04:09:23;;;;;;;2.28;1.48;;;;;;;18.85;57.55;100862.25;6607363;27;34087;-86
2022/08/11 04:13:01;;;;;;;2.42;1.80;;;;;;;18.94;57.14;100860.91;6604869;27;33675;-86
2022/08/11 04:16:37;;;;;;;2.03;1.67;;;;;;;18.95;56.73;100866.16;6607527;27;34689;-85
2022/08/11 04:20:17;;;;;;;1.83;1.37;;;;;;;18.95;56.99;100860.72;6607134;27;34711;-86
2022/08/11 04:23:38;;;;;;;;;;;;;;;18.99;56.54;100863.81;6607877;27;33628;-86
2022/08/11 04:27:34;;;;;;;2.10;1.35;;;;;;;19.04;56.13;100861.25;6607661;27;34077;-86
2022/08/11 04:30:56;;;;;;;2.20;1.73;;;;;;;19.15;55.70;100865.16;6607423;27;33700;-86
2022/08/11 04:34:41;;;;;;;1.75;1.48;;;;;;;19.22;55.35;100865.97;6607644;27;34784;-86
2022/08/11 04:38:21;;;;;;;2.33;1.45;;;;;;;19.33;55.04;100864.37;6608093;27;33720;-86
2022/08/11 04:43:19;;;;;;;3.87;1.60;;;;;;;19.28;55.12;100867.78;6608928;27;33785;-85
2022/08/11 04:45:25;;;;;;;1.77;1.67;;;;;;;19.42;54.78;100865.75;6583966;27;34110;-85
2022/08/11 05:03:42;;;;;;;1.60;1.50;;;;;;;19.94;52.85;100874.50;6579687;27;35380;-86
2022/08/11 05:07:29;;;;;;;1.27;1.10;;;;;;;20.02;52.78;100871.47;6579284;27;33877;-86
2022/08/11 05:10:54;;;;;;;2.75;1.62;;;;;;;19.98;52.54;100878.47;6442526;27;33656;-87
2022/08/11 05:35:49;;;;;;;1.70;1.42;;;;;;;20.88;49.16;100893.31;6579680;27;33633;-87
2022/08/11 05:56:20;;;;;;;2.97;2.67;;;;;;;21.38;48.26;100893.81;6582489;27;34047;-86
2022/08/11 05:59:27;;;;;;;4.90;2.92;;;;;;;21.46;47.20;100892.59;6560076;27;32488;-87
2022/08/11 06:02:30;;;;;;;4.25;1.40;;;;;;;21.67;46.96;100882.94;6583063;27;33689;-86
2022/08/11 06:05:36;;;;;;;2.35;1.30;;;;;;;21.99;45.74;100885.31;6580723;27;34242;-87
2022/08/11 06:08:46;;;;;;;9.35;5.55;;;;;;;22.19;45.27;100889.34;6579661;27;34311;-86
2022/08/11 06:11:50;;;;;;;2.45;1.35;;;;;;;22.32;44.83;100885.50;6559760;27;33912;-87
2022/08/11 06:15:00;;;;;;;3.08;1.60;;;;;;;22.46;44.61;100896.19;6579761;27;34621;-87
2022/08/11 06:18:10;;;;;;;3.60;1.60;;;;;;;22.59;44.99;100885.75;6580024;27;34375;-87
2022/08/11 06:21:15;;;;;;;1.98;1.23;;;;;;;22.57;44.23;100878.84;6580753;27;33989;-87
2022/08/11 06:24:18;;;;;;;2.37;1.55;;;;;;;22.68;44.06;100883.44;6580843;27;34060;-87
2022/08/11 06:27:27;;;;;;;2.70;1.30;;;;;;;22.53;43.77;100880.44;6580263;27;34381;-87
2022/08/11 06:30:43;;;;;;;4.30;1.60;;;;;;;22.60;44.75;100876.44;6560343;27;32618;-87
2022/08/11 06:33:49;;;;;;;1.30;1.20;;;;;;;22.72;44.64;100879.12;6580760;27;33988;-87
2022/08/11 06:37:07;;;;;;;2.55;1.60;;;;;;;22.94;42.85;100873.78;6580069;27;34254;-87
2022/08/11 06:41:29;;;;;;;2.58;1.42;;;;;;;23.31;42.04;100876.91;6581332;27;34617;-87
2022/08/11 06:44:11;;;;;;;1.30;1.20;;;;;;;23.75;40.48;100877.06;6580350;27;33898;-87
2022/08/11 06:47:17;;;;;;;1.08;1.02;;;;;;;23.91;40.06;100874.50;6580364;27;35082;-86
2022/08/11 06:53:58;;;;;;;1.73;1.35;;;;;;;23.54;40.25;100877.78;6585016;27;33971;-87
2022/08/11 07:00:35;;;;;;;1.87;1.42;;;;;;;24.00;39.57;100872.97;6577427;27;33650;-87
2022/08/11 07:03:43;;;;;;;1.20;1.10;;;;;;;24.25;39.86;100875.22;6586972;27;34900;-87
2022/08/11 07:17:36;;;;;;;1.27;1.17;;;;;;;24.47;38.41;100871.66;6559830;27;32888;-86
2022/08/11 07:31:36;;;;;;;2.75;1.10;;;;;;;25.04;37.95;100873.88;6559359;27;33338;-87
2022/08/11 07:34:46;;;;;;;1.92;1.17;;;;;;;25.06;37.01;100871.66;6560102;27;32651;-87
2022/08/11 07:37:57;;;;;;;5.60;1.45;;;;;;;25.06;36.72;100874.44;6579883;27;34770;-86
2022/08/11 07:41:04;;;;;;;3.90;1.20;;;;;;;25.28;37.04;100866.09;6579164;27;34106;-86
2022/08/11 07:44:11;;;;;;;3.30;1.70;;;;;;;25.48;36.54;100860.75;6559575;27;33230;-87
2022/08/11 07:54:04;;;;;;;3.05;1.08;;;;;;;25.75;35.34;100857.03;6560529;27;33637;-86
2022/08/11 08:18:00;;;;;;;1.65;1.30;;;;;;;25.73;34.59;100834.41;6579682;27;34320;-86
2022/08/11 08:21:23;;;;;;;1.77;1.25;;;;;;;25.74;34.70;100842.44;6559417;27;33744;-87
2022/08/11 08:24:27;;;;;;;3.55;1.48;;;;;;;25.80;35.27;100835.00;6559367;27;34322;-86
2022/08/11 08:27:31;;;;;;;1.37;1.10;;;;;;;25.68;34.70;100835.22;6580033;27;33983;-86
2022/08/11 08:30:54;;;;;;;1.48;1.27;;;;;;;25.80;34.84;100832.25;6561167;27;32720;-86
2022/08/11 08:33:56;;;;;;;2.37;1.40;;;;;;;25.67;34.98;100836.31;6560033;27;32653;-87
2022/08/11 08:37:00;;;;;;;1.35;1.25;;;;;;;25.91;35.40;100836.72;6562210;27;32443;-86
2022/08/11 08:40:08;;;;;;;2.12;1.23;;;;;;;25.98;35.13;100822.72;6583292;27;34007;-87
2022/08/11 08:43:16;;;;;;;4.75;1.55;;;;;;;26.27;34.99;100823.09;6587365;27;35205;-87
2022/08/11 08:46:24;;;;;;;1.75;1.23;;;;;;;26.39;35.00;100817.31;6588952;27;34390;-87
2022/08/11 08:49:33;;;;;;;4.03;1.15;;;;;;;26.49;34.35;100814.56;6583545;27;33976;-86
2022/08/11 08:52:46;;;;;;;1.00;0.70;;;;;;;26.79;33.14;100810.22;6581665;27;34139;-86
2022/08/11 08:55:51;;;;;;;1.07;0.97;;;;;;;26.93;30.93;100808.56;6584672;27;34413;-86
2022/08/11 08:58:56;;;;;;;0.50;0.47;;;;;;;26.71;30.01;100806.06;6582406;27;33930;-86
2022/08/11 09:02:04;;;;;;;2.60;0.95;;;;;;;26.79;29.34;100810.22;6580849;27;35180;-86
2022/08/11 09:05:08;;;;;;;7.40;4.28;;;;;;;26.67;30.14;100814.06;6578274;27;34257;-86
2022/08/11 09:08:13;;;;;;;1.60;1.23;;;;;;;26.94;29.73;100804.72;6578575;27;34002;-86
2022/08/11 09:18:04;;;;;;;1.20;1.10;;;;;;;27.43;27.02;100794.97;6580309;27;33768;-86
2022/08/11 09:21:08;;;;;;;6.35;4.00;;;;;;;27.34;26.35;100789.19;6558677;27;32150;-86
2022/08/11 09:27:34;;;;;;;2.90;1.10;;;;;;;27.67;26.11;100776.66;6587569;27;34405;-85
2022/08/11 09:30:40;;;;;;;0.90;0.90;;;;;;;28.20;25.90;100774.22;6553655;27;32022;-85
2022/08/11 09:33:45;;;;;;;1.05;0.57;;;;;;;28.29;25.80;100762.53;6568091;27;32662;-89
2022/08/11 09:40:28;;;;;;;1.42;0.77;;;;;;;28.30;26.59;100753.13;6582739;27;34443;-86
2022/08/11 09:46:58;;;;;;;0.93;0.90;;;;;;;27.49;29.15;100768.97;6579501;27;34491;-86
2022/08/11 09:50:02;;;;;;;1.10;0.98;;;;;;;27.04;29.98;100768.75;6579532;27;33925;-86
2022/08/11 09:53:05;;;;;;;2.45;0.93;;;;;;;26.92;30.18;100768.22;6558722;27;32795;-86
2022/08/11 09:59:52;;;;;;;2.40;0.85;;;;;;;27.10;29.33;100764.06;6579202;27;34365;-86
2022/08/11 10:03:18;;;;;;;2.40;0.90;;;;;;;27.67;29.43;100757.31;6558961;27;33302;-86
2022/08/11 10:10:00;;;;;;;3.40;1.20;;;;;;;28.44;27.80;100743.06;6558887;27;32683;-90
2022/08/11 10:13:15;;;;;;;0.77;0.75;;;;;;;28.30;28.34;100740.09;6558724;27;33096;-86
2022/08/11 10:16:40;;;;;;;0.80;0.80;;;;;;;29.13;26.83;100749.41;6578638;27;35004;-86
2022/08/11 10:19:46;;;;;;;0.80;0.70;;;;;;;29.48;26.06;100739.84;6578588;27;33975;-86
2022/08/11 10:37:01;;;;;;;1.25;0.95;;;;;;;29.24;26.16;100716.84;6558901;27;33383;-87
2022/08/11 10:40:07;;;;;;;2.15;0.90;;;;;;;28.59;26.62;100722.72;6559168;27;32836;-87
2022/08/11 10:43:12;;;;;;;1.02;0.95;;;;;;;28.39;27.02;100707.06;6578405;27;34236;-86
2022/08/11 11:00:13;;;;;;;1.77;0.90;;;;;;;29.36;25.01;100698.66;6585103;27;34865;-86
2022/08/11 11:03:17;;;;;;;0.90;0.80;;;;;;;29.23;25.09;100704.13;6560064;27;32841;-86
2022/08/11 11:06:43;;;;;;;;;;;;;;;30.15;23.76;100700.12;6564046;27;32417;-89
2022/08/11 11:09:49;;;;;;;1.15;0.70;;;;;;;31.17;23.30;100692.84;6582822;27;34367;-86
2022/08/11 11:19:45;;;;;;;4.82;2.50;;;;;;;32.25;20.45;100663.50;6587052;27;35020;-86
2022/08/11 11:22:52;;;;;;;0.62;0.62;;;;;;;32.51;20.41;100667.31;6564823;27;32907;-86
2022/08/11 11:26:10;;;;;;;0.73;0.70;;;;;;;31.69;20.68;100667.59;6571475;27;32576;-86
2022/08/11 11:29:49;;;;;;;0.45;0.45;;;;;;;31.98;20.82;100654.13;6586687;27;33962;-86
2022/08/11 11:33:24;;;;;;;0.30;0.30;;;;;;;31.99;20.89;100666.91;6579707;27;34061;-86
2022/08/11 11:36:32;;;;;;;6.82;2.17;;;;;;;30.73;21.19;100658.06;6559440;27;32447;-90
2022/08/11 11:39:36;;;;;;;0.90;0.90;;;;;;;30.14;22.35;100656.84;6580054;27;33491;-87
2022/08/11 11:42:41;;;;;;;3.03;1.00;;;;;;;29.41;23.18;100663.69;6579233;27;33929;-87
2022/08/11 11:45:43;;;;;;;0.40;0.40;;;;;;;29.26;23.74;100659.16;6559545;27;33846;-86
2022/08/11 11:48:47;;;;;;;0.55;0.40;;;;;;;29.22;23.66;100666.41;6559779;27;32396;-86
2022/08/11 11:51:51;;;;;;;1.10;0.80;;;;;;;29.05;23.75;100656.63;6579109;27;34074;-86
2022/08/11 11:54:56;;;;;;;31.00;2.92;;;;;;;28.99;24.43;100651.38;6559484;27;33311;-86
2022/08/11 12:01:25;;;;;;;0.47;0.47;;;;;;;29.19;23.62;100647.59;6579783;27;33794;-87
